Klagenfurt, Austria
Current Conditions -  °F | °C
As of 8:20 PM on Saturday 20 Dec 2014 (Local Time) from LOWK Reporting Station
Moderate Fog Moderate Fog  
Wind Chill: 34°   Ceiling: 200
Heat Index: 34°   Visibility: 0.25mi
Dew Point: 34°   Wind: 1mph
Humidity: 100%   Direction: NA
Pressure: 30.09"   Gusts: NA
Location:  46.62°N, 14.31°E
Report Text: LOWK 201820Z VRB01KT 0400 R10/0500N R28/0550N FG VV002 01/01 Q1019 R10L/29//95 NOSIG
Loading
Personal Weather Stations






























Interactive Weather Map New forecast layout! Learn more

10-Day Weather Forecast

Advertisements
Track Severe Weather on mobile